sensor_id;sensor_type;location;lat;lon;timestamp;temperature;humidity
21807;DHT22;11065;50.786;7.840;2023-07-20T00:01:06;21.40;43.40
21807;DHT22;11065;50.786;7.840;2023-07-20T00:03:34;21.40;43.50
21807;DHT22;11065;50.786;7.840;2023-07-20T00:06:03;21.40;43.80
21807;DHT22;11065;50.786;7.840;2023-07-20T00:08:31;21.40;43.90
21807;DHT22;11065;50.786;7.840;2023-07-20T00:10:59;21.40;43.70
21807;DHT22;11065;50.786;7.840;2023-07-20T00:13:27;21.40;43.70
21807;DHT22;11065;50.786;7.840;2023-07-20T00:15:55;21.30;43.70
21807;DHT22;11065;50.786;7.840;2023-07-20T00:18:23;21.20;43.80
21807;DHT22;11065;50.786;7.840;2023-07-20T00:20:51;21.20;43.90
21807;DHT22;11065;50.786;7.840;2023-07-20T00:23:21;21.10;43.80
21807;DHT22;11065;50.786;7.840;2023-07-20T00:25:49;21.10;44.00
21807;DHT22;11065;50.786;7.840;2023-07-20T00:28:17;21.00;44.00
21807;DHT22;11065;50.786;7.840;2023-07-20T00:30:45;21.00;44.00
21807;DHT22;11065;50.786;7.840;2023-07-20T00:33:13;21.00;44.10
21807;DHT22;11065;50.786;7.840;2023-07-20T00:35:40;20.90;44.20
21807;DHT22;11065;50.786;7.840;2023-07-20T00:38:08;20.90;44.30
21807;DHT22;11065;50.786;7.840;2023-07-20T00:40:38;20.80;44.40
21807;DHT22;11065;50.786;7.840;2023-07-20T00:43:06;20.70;44.50
21807;DHT22;11065;50.786;7.840;2023-07-20T00:45:34;20.70;44.50
21807;DHT22;11065;50.786;7.840;2023-07-20T00:48:05;20.60;44.60
21807;DHT22;11065;50.786;7.840;2023-07-20T00:50:35;20.60;44.70
21807;DHT22;11065;50.786;7.840;2023-07-20T00:53:04;20.50;44.70
21807;DHT22;11065;50.786;7.840;2023-07-20T00:55:33;20.50;44.80
21807;DHT22;11065;50.786;7.840;2023-07-20T00:58:03;20.40;44.90
21807;DHT22;11065;50.786;7.840;2023-07-20T01:00:31;20.40;45.10
21807;DHT22;11065;50.786;7.840;2023-07-20T01:02:59;20.30;45.10
21807;DHT22;11065;50.786;7.840;2023-07-20T01:05:35;20.30;45.10
21807;DHT22;11065;50.786;7.840;2023-07-20T01:08:11;20.20;45.50
21807;DHT22;11065;50.786;7.840;2023-07-20T01:10:43;20.20;45.50
21807;DHT22;11065;50.786;7.840;2023-07-20T01:13:14;20.10;45.40
21807;DHT22;11065;50.786;7.840;2023-07-20T01:15:49;20.10;45.50
21807;DHT22;11065;50.786;7.840;2023-07-20T01:18:18;20.10;45.90
21807;DHT22;11065;50.786;7.840;2023-07-20T01:20:46;20.10;45.70
21807;DHT22;11065;50.786;7.840;2023-07-20T01:23:25;20.10;45.80
21807;DHT22;11065;50.786;7.840;2023-07-20T01:26:10;20.10;46.60
21807;DHT22;11065;50.786;7.840;2023-07-20T01:29:03;20.00;46.50
21807;DHT22;11065;50.786;7.840;2023-07-20T01:31:38;20.10;46.70
21807;DHT22;11065;50.786;7.840;2023-07-20T01:34:09;20.10;46.20
21807;DHT22;11065;50.786;7.840;2023-07-20T01:36:39;20.10;47.10
21807;DHT22;11065;50.786;7.840;2023-07-20T01:39:08;20.10;46.40
21807;DHT22;11065;50.786;7.840;2023-07-20T01:41:36;20.10;46.40
21807;DHT22;11065;50.786;7.840;2023-07-20T01:44:05;20.10;46.50
21807;DHT22;11065;50.786;7.840;2023-07-20T01:46:33;20.20;46.50
21807;DHT22;11065;50.786;7.840;2023-07-20T01:49:02;20.20;46.50
21807;DHT22;11065;50.786;7.840;2023-07-20T01:51:31;20.20;46.60
21807;DHT22;11065;50.786;7.840;2023-07-20T01:53:59;20.20;46.50
21807;DHT22;11065;50.786;7.840;2023-07-20T01:56:27;20.20;47.70
21807;DHT22;11065;50.786;7.840;2023-07-20T01:58:55;20.20;46.80
21807;DHT22;11065;50.786;7.840;2023-07-20T02:01:23;20.20;46.70
21807;DHT22;11065;50.786;7.840;2023-07-20T02:03:51;20.20;46.70
21807;DHT22;11065;50.786;7.840;2023-07-20T02:06:21;20.20;46.70
21807;DHT22;11065;50.786;7.840;2023-07-20T02:08:49;20.20;47.00
21807;DHT22;11065;50.786;7.840;2023-07-20T02:11:17;20.20;46.80
21807;DHT22;11065;50.786;7.840;2023-07-20T02:13:45;20.20;47.20
21807;DHT22;11065;50.786;7.840;2023-07-20T02:16:13;20.20;46.90
21807;DHT22;11065;50.786;7.840;2023-07-20T02:18:41;20.20;46.90
21807;DHT22;11065;50.786;7.840;2023-07-20T02:21:08;20.20;47.00
21807;DHT22;11065;50.786;7.840;2023-07-20T02:23:40;20.20;47.00
21807;DHT22;11065;50.786;7.840;2023-07-20T02:26:08;20.20;47.00
21807;DHT22;11065;50.786;7.840;2023-07-20T02:28:36;20.20;47.00
21807;DHT22;11065;50.786;7.840;2023-07-20T02:31:04;20.20;47.10
21807;DHT22;11065;50.786;7.840;2023-07-20T02:33:32;20.20;47.20
21807;DHT22;11065;50.786;7.840;2023-07-20T02:35:59;20.20;47.10
21807;DHT22;11065;50.786;7.840;2023-07-20T02:38:27;20.20;47.20
21807;DHT22;11065;50.786;7.840;2023-07-20T02:40:57;20.20;47.30
21807;DHT22;11065;50.786;7.840;2023-07-20T02:43:24;20.20;47.60
21807;DHT22;11065;50.786;7.840;2023-07-20T02:45:53;20.20;48.10
21807;DHT22;11065;50.786;7.840;2023-07-20T02:48:21;20.20;47.80
21807;DHT22;11065;50.786;7.840;2023-07-20T02:50:49;20.20;47.80
21807;DHT22;11065;50.786;7.840;2023-07-20T02:53:17;20.10;47.80
21807;DHT22;11065;50.786;7.840;2023-07-20T02:55:45;20.10;47.80
21807;DHT22;11065;50.786;7.840;2023-07-20T02:58:15;20.10;47.80
21807;DHT22;11065;50.786;7.840;2023-07-20T03:00:43;20.10;48.00
21807;DHT22;11065;50.786;7.840;2023-07-20T03:03:11;20.10;48.00
21807;DHT22;11065;50.786;7.840;2023-07-20T03:05:40;20.00;48.00
21807;DHT22;11065;50.786;7.840;2023-07-20T03:08:08;20.00;48.00
21807;DHT22;11065;50.786;7.840;2023-07-20T03:10:39;20.00;48.10
21807;DHT22;11065;50.786;7.840;2023-07-20T03:13:07;20.00;48.50
21807;DHT22;11065;50.786;7.840;2023-07-20T03:15:36;20.00;48.20
21807;DHT22;11065;50.786;7.840;2023-07-20T03:18:04;20.00;48.30
21807;DHT22;11065;50.786;7.840;2023-07-20T03:20:32;20.00;48.20
21807;DHT22;11065;50.786;7.840;2023-07-20T03:23:00;19.90;48.20
21807;DHT22;11065;50.786;7.840;2023-07-20T03:25:29;19.90;48.30
21807;DHT22;11065;50.786;7.840;2023-07-20T03:27:57;19.90;48.50
21807;DHT22;11065;50.786;7.840;2023-07-20T03:30:25;19.90;48.70
21807;DHT22;11065;50.786;7.840;2023-07-20T03:32:55;19.90;48.60
21807;DHT22;11065;50.786;7.840;2023-07-20T03:35:23;19.80;48.60
21807;DHT22;11065;50.786;7.840;2023-07-20T03:37:50;19.80;49.20
21807;DHT22;11065;50.786;7.840;2023-07-20T03:40:18;19.80;48.80
21807;DHT22;11065;50.786;7.840;2023-07-20T03:42:46;19.80;48.80
21807;DHT22;11065;50.786;7.840;2023-07-20T03:45:14;19.80;48.90
21807;DHT22;11065;50.786;7.840;2023-07-20T03:47:42;19.80;49.00
21807;DHT22;11065;50.786;7.840;2023-07-20T03:50:12;19.80;49.20
21807;DHT22;11065;50.786;7.840;2023-07-20T03:52:40;19.80;49.20
21807;DHT22;11065;50.786;7.840;2023-07-20T03:55:08;19.80;49.10
21807;DHT22;11065;50.786;7.840;2023-07-20T03:57:37;19.80;49.10
21807;DHT22;11065;50.786;7.840;2023-07-20T04:00:06;19.80;49.20
21807;DHT22;11065;50.786;7.840;2023-07-20T04:02:38;19.70;49.70
21807;DHT22;11065;50.786;7.840;2023-07-20T04:05:07;19.70;49.60
21807;DHT22;11065;50.786;7.840;2023-07-20T04:07:36;19.70;49.70
21807;DHT22;11065;50.786;7.840;2023-07-20T04:10:04;19.70;49.70
21807;DHT22;11065;50.786;7.840;2023-07-20T04:12:35;19.70;49.70
21807;DHT22;11065;50.786;7.840;2023-07-20T04:15:03;19.70;49.70
21807;DHT22;11065;50.786;7.840;2023-07-20T04:17:32;19.70;49.70
21807;DHT22;11065;50.786;7.840;2023-07-20T04:20:00;19.70;50.20
21807;DHT22;11065;50.786;7.840;2023-07-20T04:22:29;19.70;49.80
21807;DHT22;11065;50.786;7.840;2023-07-20T04:24:58;19.70;50.40
21807;DHT22;11065;50.786;7.840;2023-07-20T04:27:26;19.70;50.90
21807;DHT22;11065;50.786;7.840;2023-07-20T04:29:54;19.70;50.20
21807;DHT22;11065;50.786;7.840;2023-07-20T04:32:22;19.70;50.20
21807;DHT22;11065;50.786;7.840;2023-07-20T04:34:52;19.70;50.80
21807;DHT22;11065;50.786;7.840;2023-07-20T04:37:20;19.80;50.20
21807;DHT22;11065;50.786;7.840;2023-07-20T04:39:48;19.80;50.10
21807;DHT22;11065;50.786;7.840;2023-07-20T04:42:17;19.80;50.20
21807;DHT22;11065;50.786;7.840;2023-07-20T04:44:47;19.80;50.10
21807;DHT22;11065;50.786;7.840;2023-07-20T04:47:15;19.80;50.80
21807;DHT22;11065;50.786;7.840;2023-07-20T04:49:43;19.80;50.20
21807;DHT22;11065;50.786;7.840;2023-07-20T04:52:11;19.80;50.20
21807;DHT22;11065;50.786;7.840;2023-07-20T04:54:39;19.80;50.20
21807;DHT22;11065;50.786;7.840;2023-07-20T04:57:11;19.90;50.20
21807;DHT22;11065;50.786;7.840;2023-07-20T04:59:45;19.90;50.30
21807;DHT22;11065;50.786;7.840;2023-07-20T05:02:13;19.90;50.30
21807;DHT22;11065;50.786;7.840;2023-07-20T05:04:41;19.90;50.30
21807;DHT22;11065;50.786;7.840;2023-07-20T05:07:09;19.90;50.20
21807;DHT22;11065;50.786;7.840;2023-07-20T05:09:37;20.00;50.40
21807;DHT22;11065;50.786;7.840;2023-07-20T05:12:06;20.00;50.30
21807;DHT22;11065;50.786;7.840;2023-07-20T05:14:34;20.00;50.20
21807;DHT22;11065;50.786;7.840;2023-07-20T05:17:04;20.00;50.20
21807;DHT22;11065;50.786;7.840;2023-07-20T05:19:32;20.10;50.20
21807;DHT22;11065;50.786;7.840;2023-07-20T05:22:00;20.10;50.20
21807;DHT22;11065;50.786;7.840;2023-07-20T05:24:28;20.10;50.20
21807;DHT22;11065;50.786;7.840;2023-07-20T05:26:57;20.10;50.20
21807;DHT22;11065;50.786;7.840;2023-07-20T05:29:25;20.10;50.30
21807;DHT22;11065;50.786;7.840;2023-07-20T05:31:53;20.10;50.20
21807;DHT22;11065;50.786;7.840;2023-07-20T05:34:22;20.10;50.10
21807;DHT22;11065;50.786;7.840;2023-07-20T05:37:10;20.10;50.20
21807;DHT22;11065;50.786;7.840;2023-07-20T05:39:41;20.10;50.50
21807;DHT22;11065;50.786;7.840;2023-07-20T05:42:09;20.10;50.10
21807;DHT22;11065;50.786;7.840;2023-07-20T05:44:37;20.10;50.20
21807;DHT22;11065;50.786;7.840;2023-07-20T05:47:07;20.10;50.40
21807;DHT22;11065;50.786;7.840;2023-07-20T05:49:37;20.10;50.30
21807;DHT22;11065;50.786;7.840;2023-07-20T05:52:05;20.20;50.30
21807;DHT22;11065;50.786;7.840;2023-07-20T05:54:33;20.10;50.20
21807;DHT22;11065;50.786;7.840;2023-07-20T05:57:01;20.10;50.20
21807;DHT22;11065;50.786;7.840;2023-07-20T05:59:29;20.20;50.30
21807;DHT22;11065;50.786;7.840;2023-07-20T06:01:58;20.20;50.30
21807;DHT22;11065;50.786;7.840;2023-07-20T06:04:26;20.20;50.40
21807;DHT22;11065;50.786;7.840;2023-07-20T06:06:55;20.20;50.40
21807;DHT22;11065;50.786;7.840;2023-07-20T06:09:23;20.20;50.40
21807;DHT22;11065;50.786;7.840;2023-07-20T06:11:51;20.30;50.50
21807;DHT22;11065;50.786;7.840;2023-07-20T06:14:19;20.30;50.40
21807;DHT22;11065;50.786;7.840;2023-07-20T06:16:47;20.30;50.30
21807;DHT22;11065;50.786;7.840;2023-07-20T06:19:15;20.30;50.20
21807;DHT22;11065;50.786;7.840;2023-07-20T06:21:43;20.40;50.30
21807;DHT22;11065;50.786;7.840;2023-07-20T06:24:12;20.40;50.30
21807;DHT22;11065;50.786;7.840;2023-07-20T06:26:40;20.50;50.40
21807;DHT22;11065;50.786;7.840;2023-07-20T06:29:08;20.50;50.30
21807;DHT22;11065;50.786;7.840;2023-07-20T06:31:37;20.50;50.30
21807;DHT22;11065;50.786;7.840;2023-07-20T06:34:05;20.60;50.30
21807;DHT22;11065;50.786;7.840;2023-07-20T06:36:33;20.60;50.50
21807;DHT22;11065;50.786;7.840;2023-07-20T06:39:01;20.60;50.20
21807;DHT22;11065;50.786;7.840;2023-07-20T06:41:33;20.60;50.10
21807;DHT22;11065;50.786;7.840;2023-07-20T06:44:04;20.70;50.30
21807;DHT22;11065;50.786;7.840;2023-07-20T06:46:32;20.60;50.00
21807;DHT22;11065;50.786;7.840;2023-07-20T06:49:00;20.60;50.00
21807;DHT22;11065;50.786;7.840;2023-07-20T06:51:31;20.60;50.00
21807;DHT22;11065;50.786;7.840;2023-07-20T06:53:59;20.60;49.90
21807;DHT22;11065;50.786;7.840;2023-07-20T06:56:27;20.60;49.90
21807;DHT22;11065;50.786;7.840;2023-07-20T06:58:58;20.70;50.10
21807;DHT22;11065;50.786;7.840;2023-07-20T07:01:26;20.70;50.10
21807;DHT22;11065;50.786;7.840;2023-07-20T07:03:54;20.80;50.20
21807;DHT22;11065;50.786;7.840;2023-07-20T07:06:23;20.90;50.10
21807;DHT22;11065;50.786;7.840;2023-07-20T07:08:52;20.90;50.00
21807;DHT22;11065;50.786;7.840;2023-07-20T07:11:20;21.00;49.80
21807;DHT22;11065;50.786;7.840;2023-07-20T07:13:49;21.10;49.50
21807;DHT22;11065;50.786;7.840;2023-07-20T07:16:19;21.10;49.40
21807;DHT22;11065;50.786;7.840;2023-07-20T07:18:49;21.10;49.40
21807;DHT22;11065;50.786;7.840;2023-07-20T07:21:17;21.20;49.50
21807;DHT22;11065;50.786;7.840;2023-07-20T07:23:45;21.30;49.40
21807;DHT22;11065;50.786;7.840;2023-07-20T07:26:13;21.30;49.30
21807;DHT22;11065;50.786;7.840;2023-07-20T07:28:41;21.40;49.20
21807;DHT22;11065;50.786;7.840;2023-07-20T07:31:09;21.50;49.20
21807;DHT22;11065;50.786;7.840;2023-07-20T07:33:39;21.50;49.10
21807;DHT22;11065;50.786;7.840;2023-07-20T07:36:07;21.60;49.00
21807;DHT22;11065;50.786;7.840;2023-07-20T07:38:35;21.70;48.90
21807;DHT22;11065;50.786;7.840;2023-07-20T07:59:19;21.70;48.80
21807;DHT22;11065;50.786;7.840;2023-07-20T08:01:47;22.20;48.50
21807;DHT22;11065;50.786;7.840;2023-07-20T08:04:15;22.20;48.30
21807;DHT22;11065;50.786;7.840;2023-07-20T08:06:44;22.30;48.10
21807;DHT22;11065;50.786;7.840;2023-07-20T08:09:12;22.50;48.00
21807;DHT22;11065;50.786;7.840;2023-07-20T08:11:40;22.50;47.70
21807;DHT22;11065;50.786;7.840;2023-07-20T08:14:08;22.60;47.50
21807;DHT22;11065;50.786;7.840;2023-07-20T08:16:37;22.70;47.40
21807;DHT22;11065;50.786;7.840;2023-07-20T08:19:05;22.70;47.20
21807;DHT22;11065;50.786;7.840;2023-07-20T08:21:33;22.70;47.00
21807;DHT22;11065;50.786;7.840;2023-07-20T08:24:01;22.90;47.00
21807;DHT22;11065;50.786;7.840;2023-07-20T08:26:29;22.90;47.10
21807;DHT22;11065;50.786;7.840;2023-07-20T08:28:57;22.90;47.20
21807;DHT22;11065;50.786;7.840;2023-07-20T08:31:25;23.00;47.30
21807;DHT22;11065;50.786;7.840;2023-07-20T08:33:56;23.20;47.30
21807;DHT22;11065;50.786;7.840;2023-07-20T08:36:24;23.20;46.90
21807;DHT22;11065;50.786;7.840;2023-07-20T08:38:53;23.30;46.70
21807;DHT22;11065;50.786;7.840;2023-07-20T08:41:21;23.30;46.50
21807;DHT22;11065;50.786;7.840;2023-07-20T08:43:51;23.30;46.40
21807;DHT22;11065;50.786;7.840;2023-07-20T08:46:22;23.30;46.40
21807;DHT22;11065;50.786;7.840;2023-07-20T08:48:51;23.30;46.20
21807;DHT22;11065;50.786;7.840;2023-07-20T08:51:21;23.30;46.00
21807;DHT22;11065;50.786;7.840;2023-07-20T08:53:51;23.40;45.90
21807;DHT22;11065;50.786;7.840;2023-07-20T08:56:20;23.40;45.80
21807;DHT22;11065;50.786;7.840;2023-07-20T08:58:49;23.50;46.10
21807;DHT22;11065;50.786;7.840;2023-07-20T09:01:18;23.60;46.00
21807;DHT22;11065;50.786;7.840;2023-07-20T09:03:47;23.70;46.00
21807;DHT22;11065;50.786;7.840;2023-07-20T09:06:15;23.90;46.00
21807;DHT22;11065;50.786;7.840;2023-07-20T09:08:44;24.00;45.90
21807;DHT22;11065;50.786;7.840;2023-07-20T09:11:13;24.10;45.70
21807;DHT22;11065;50.786;7.840;2023-07-20T09:13:41;24.20;45.60
21807;DHT22;11065;50.786;7.840;2023-07-20T09:16:13;24.30;45.50
21807;DHT22;11065;50.786;7.840;2023-07-20T09:18:42;24.50;45.10
21807;DHT22;11065;50.786;7.840;2023-07-20T09:21:10;24.60;45.30
21807;DHT22;11065;50.786;7.840;2023-07-20T09:23:38;24.80;45.60
21807;DHT22;11065;50.786;7.840;2023-07-20T09:26:12;25.10;45.90
21807;DHT22;11065;50.786;7.840;2023-07-20T09:28:47;25.70;46.30
21807;DHT22;11065;50.786;7.840;2023-07-20T09:31:16;26.10;46.00
21807;DHT22;11065;50.786;7.840;2023-07-20T09:33:44;26.60;46.40
21807;DHT22;11065;50.786;7.840;2023-07-20T09:36:18;27.20;46.20
21807;DHT22;11065;50.786;7.840;2023-07-20T09:39:06;27.80;44.30
21807;DHT22;11065;50.786;7.840;2023-07-20T09:41:42;28.40;45.10
21807;DHT22;11065;50.786;7.840;2023-07-20T09:44:14;28.90;43.60
21807;DHT22;11065;50.786;7.840;2023-07-20T09:46:47;29.30;44.00
21807;DHT22;11065;50.786;7.840;2023-07-20T09:49:18;29.80;43.60
21807;DHT22;11065;50.786;7.840;2023-07-20T09:51:49;30.30;43.30
21807;DHT22;11065;50.786;7.840;2023-07-20T09:54:17;30.80;42.60
21807;DHT22;11065;50.786;7.840;2023-07-20T09:56:48;31.10;41.80
21807;DHT22;11065;50.786;7.840;2023-07-20T09:59:18;31.50;41.50
21807;DHT22;11065;50.786;7.840;2023-07-20T10:01:46;32.00;41.60
21807;DHT22;11065;50.786;7.840;2023-07-20T10:04:16;32.40;41.10
21807;DHT22;11065;50.786;7.840;2023-07-20T10:06:49;32.90;40.40
21807;DHT22;11065;50.786;7.840;2023-07-20T10:09:20;33.20;39.00
21807;DHT22;11065;50.786;7.840;2023-07-20T10:11:52;33.70;39.40
21807;DHT22;11065;50.786;7.840;2023-07-20T10:14:43;34.00;38.40
21807;DHT22;11065;50.786;7.840;2023-07-20T10:17:13;34.40;38.80
21807;DHT22;11065;50.786;7.840;2023-07-20T10:19:46;34.80;38.60
21807;DHT22;11065;50.786;7.840;2023-07-20T10:22:22;35.20;37.60
21807;DHT22;11065;50.786;7.840;2023-07-20T10:24:54;35.40;36.60
21807;DHT22;11065;50.786;7.840;2023-07-20T10:27:27;35.40;36.00
21807;DHT22;11065;50.786;7.840;2023-07-20T10:29:55;35.30;34.00
21807;DHT22;11065;50.786;7.840;2023-07-20T10:32:25;35.30;35.50
21807;DHT22;11065;50.786;7.840;2023-07-20T10:34:57;35.50;35.80
21807;DHT22;11065;50.786;7.840;2023-07-20T10:37:47;35.90;36.20
21807;DHT22;11065;50.786;7.840;2023-07-20T10:40:27;36.30;35.30
21807;DHT22;11065;50.786;7.840;2023-07-20T10:43:03;36.70;34.50
21807;DHT22;11065;50.786;7.840;2023-07-20T10:45:41;37.10;34.30
21807;DHT22;11065;50.786;7.840;2023-07-20T10:48:17;37.40;33.50
21807;DHT22;11065;50.786;7.840;2023-07-20T10:51:11;37.60;33.20
21807;DHT22;11065;50.786;7.840;2023-07-20T10:53:39;38.00;30.60
21807;DHT22;11065;50.786;7.840;2023-07-20T10:56:08;38.10;33.10
21807;DHT22;11065;50.786;7.840;2023-07-20T10:58:39;38.00;31.80
21807;DHT22;11065;50.786;7.840;2023-07-20T11:01:13;37.70;31.30
21807;DHT22;11065;50.786;7.840;2023-07-20T11:03:43;37.50;30.80
21807;DHT22;11065;50.786;7.840;2023-07-20T11:06:39;37.30;31.10
21807;DHT22;11065;50.786;7.840;2023-07-20T11:09:13;36.90;30.00
21807;DHT22;11065;50.786;7.840;2023-07-20T11:11:43;36.40;30.50
21807;DHT22;11065;50.786;7.840;2023-07-20T11:14:21;36.10;30.90
21807;DHT22;11065;50.786;7.840;2023-07-20T11:16:50;36.00;30.30
21807;DHT22;11065;50.786;7.840;2023-07-20T11:19:20;35.80;30.50
21807;DHT22;11065;50.786;7.840;2023-07-20T11:21:56;35.50;30.50
21807;DHT22;11065;50.786;7.840;2023-07-20T11:24:27;35.10;29.90
21807;DHT22;11065;50.786;7.840;2023-07-20T11:26:56;34.70;30.40
21807;DHT22;11065;50.786;7.840;2023-07-20T11:29:24;34.30;29.80
21807;DHT22;11065;50.786;7.840;2023-07-20T11:31:57;33.90;29.70
21807;DHT22;11065;50.786;7.840;2023-07-20T11:34:25;33.40;29.60
21807;DHT22;11065;50.786;7.840;2023-07-20T11:36:56;33.00;29.80
21807;DHT22;11065;50.786;7.840;2023-07-20T11:39:28;32.70;30.40
21807;DHT22;11065;50.786;7.840;2023-07-20T11:41:57;32.60;31.20
21807;DHT22;11065;50.786;7.840;2023-07-20T11:44:27;32.80;31.70
21807;DHT22;11065;50.786;7.840;2023-07-20T11:47:04;33.00;31.60
21807;DHT22;11065;50.786;7.840;2023-07-20T11:49:35;33.20;30.70
21807;DHT22;11065;50.786;7.840;2023-07-20T11:52:08;33.30;30.70
21807;DHT22;11065;50.786;7.840;2023-07-20T11:54:38;33.10;30.30
21807;DHT22;11065;50.786;7.840;2023-07-20T11:57:16;33.00;30.20
21807;DHT22;11065;50.786;7.840;2023-07-20T11:59:52;32.70;30.00
21807;DHT22;11065;50.786;7.840;2023-07-20T12:02:21;32.50;30.00
21807;DHT22;11065;50.786;7.840;2023-07-20T12:04:52;32.20;30.20
21807;DHT22;11065;50.786;7.840;2023-07-20T12:07:26;31.80;30.20
21807;DHT22;11065;50.786;7.840;2023-07-20T12:10:07;31.60;30.30
21807;DHT22;11065;50.786;7.840;2023-07-20T12:12:38;31.20;30.30
21807;DHT22;11065;50.786;7.840;2023-07-20T12:15:16;30.80;30.40
21807;DHT22;11065;50.786;7.840;2023-07-20T12:17:45;30.50;30.70
21807;DHT22;11065;50.786;7.840;2023-07-20T12:20:13;30.20;30.80
21807;DHT22;11065;50.786;7.840;2023-07-20T12:22:56;29.90;31.10
21807;DHT22;11065;50.786;7.840;2023-07-20T12:25:37;29.70;31.20
21807;DHT22;11065;50.786;7.840;2023-07-20T12:28:07;29.40;31.30
21807;DHT22;11065;50.786;7.840;2023-07-20T12:30:36;29.40;31.50
21807;DHT22;11065;50.786;7.840;2023-07-20T12:33:06;29.30;31.70
21807;DHT22;11065;50.786;7.840;2023-07-20T12:35:35;29.30;32.20
21807;DHT22;11065;50.786;7.840;2023-07-20T12:38:05;29.60;32.70
21807;DHT22;11065;50.786;7.840;2023-07-20T12:40:34;30.00;33.00
21807;DHT22;11065;50.786;7.840;2023-07-20T12:43:04;30.30;32.80
21807;DHT22;11065;50.786;7.840;2023-07-20T12:45:33;30.80;32.70
21807;DHT22;11065;50.786;7.840;2023-07-20T12:48:04;31.20;32.30
21807;DHT22;11065;50.786;7.840;2023-07-20T12:50:33;31.60;32.00
21807;DHT22;11065;50.786;7.840;2023-07-20T12:53:03;32.00;31.80
21807;DHT22;11065;50.786;7.840;2023-07-20T12:55:33;32.40;31.30
21807;DHT22;11065;50.786;7.840;2023-07-20T12:58:03;32.70;30.60
21807;DHT22;11065;50.786;7.840;2023-07-20T13:00:31;32.80;30.30
21807;DHT22;11065;50.786;7.840;2023-07-20T13:03:00;32.90;30.00
21807;DHT22;11065;50.786;7.840;2023-07-20T13:05:34;33.00;30.10
21807;DHT22;11065;50.786;7.840;2023-07-20T13:08:06;33.10;30.10
21807;DHT22;11065;50.786;7.840;2023-07-20T13:10:39;33.30;30.30
21807;DHT22;11065;50.786;7.840;2023-07-20T13:13:07;33.40;30.20
21807;DHT22;11065;50.786;7.840;2023-07-20T13:15:41;33.60;30.00
21807;DHT22;11065;50.786;7.840;2023-07-20T13:18:10;33.70;29.60
21807;DHT22;11065;50.786;7.840;2023-07-20T13:20:38;33.70;29.80
21807;DHT22;11065;50.786;7.840;2023-07-20T13:23:07;33.90;29.80
21807;DHT22;11065;50.786;7.840;2023-07-20T13:25:36;34.00;29.80
21807;DHT22;11065;50.786;7.840;2023-07-20T13:28:06;34.10;29.90
21807;DHT22;11065;50.786;7.840;2023-07-20T13:30:37;34.30;29.60
21807;DHT22;11065;50.786;7.840;2023-07-20T13:33:07;34.30;29.40
21807;DHT22;11065;50.786;7.840;2023-07-20T13:35:39;34.20;29.20
21807;DHT22;11065;50.786;7.840;2023-07-20T13:38:11;34.00;29.10
21807;DHT22;11065;50.786;7.840;2023-07-20T13:40:40;33.90;29.10
21807;DHT22;11065;50.786;7.840;2023-07-20T13:43:10;33.70;29.20
21807;DHT22;11065;50.786;7.840;2023-07-20T13:45:39;33.50;29.00
21807;DHT22;11065;50.786;7.840;2023-07-20T13:48:07;33.30;28.80
21807;DHT22;11065;50.786;7.840;2023-07-20T13:50:36;33.10;28.80
21807;DHT22;11065;50.786;7.840;2023-07-20T13:53:09;33.00;28.80
21807;DHT22;11065;50.786;7.840;2023-07-20T13:55:40;32.80;28.80
21807;DHT22;11065;50.786;7.840;2023-07-20T13:58:16;32.70;29.00
21807;DHT22;11065;50.786;7.840;2023-07-20T14:00:44;32.70;29.20
21807;DHT22;11065;50.786;7.840;2023-07-20T14:03:13;32.80;29.20
21807;DHT22;11065;50.786;7.840;2023-07-20T14:05:44;32.80;29.20
21807;DHT22;11065;50.786;7.840;2023-07-20T14:08:16;32.80;29.10
21807;DHT22;11065;50.786;7.840;2023-07-20T14:10:44;32.80;29.00
21807;DHT22;11065;50.786;7.840;2023-07-20T14:13:17;32.80;28.90
21807;DHT22;11065;50.786;7.840;2023-07-20T14:15:45;32.60;28.90
21807;DHT22;11065;50.786;7.840;2023-07-20T14:18:13;32.40;28.90
21807;DHT22;11065;50.786;7.840;2023-07-20T14:20:45;32.30;28.80
21807;DHT22;11065;50.786;7.840;2023-07-20T14:23:13;32.10;28.90
21807;DHT22;11065;50.786;7.840;2023-07-20T14:25:41;32.00;29.00
21807;DHT22;11065;50.786;7.840;2023-07-20T14:28:10;31.90;29.40
21807;DHT22;11065;50.786;7.840;2023-07-20T14:30:40;31.70;28.90
21807;DHT22;11065;50.786;7.840;2023-07-20T14:33:08;31.50;28.90
21807;DHT22;11065;50.786;7.840;2023-07-20T14:35:37;31.40;29.10
21807;DHT22;11065;50.786;7.840;2023-07-20T14:38:05;31.30;29.10
21807;DHT22;11065;50.786;7.840;2023-07-20T14:40:34;31.10;29.20
21807;DHT22;11065;50.786;7.840;2023-07-20T14:43:02;31.00;29.20
21807;DHT22;11065;50.786;7.840;2023-07-20T14:45:30;30.90;29.20
21807;DHT22;11065;50.786;7.840;2023-07-20T14:48:00;30.80;29.20
21807;DHT22;11065;50.786;7.840;2023-07-20T14:50:28;30.70;29.10
21807;DHT22;11065;50.786;7.840;2023-07-20T14:52:57;30.60;29.10
21807;DHT22;11065;50.786;7.840;2023-07-20T14:55:32;30.60;29.10
21807;DHT22;11065;50.786;7.840;2023-07-20T14:58:00;30.60;29.10
21807;DHT22;11065;50.786;7.840;2023-07-20T15:00:28;30.50;29.10
21807;DHT22;11065;50.786;7.840;2023-07-20T15:02:56;30.50;29.20
21807;DHT22;11065;50.786;7.840;2023-07-20T15:05:27;30.60;29.20
21807;DHT22;11065;50.786;7.840;2023-07-20T15:07:56;30.50;29.00
21807;DHT22;11065;50.786;7.840;2023-07-20T15:10:24;30.50;29.10
21807;DHT22;11065;50.786;7.840;2023-07-20T15:12:53;30.50;29.10
21807;DHT22;11065;50.786;7.840;2023-07-20T15:15:21;30.50;29.10
21807;DHT22;11065;50.786;7.840;2023-07-20T15:17:50;30.50;29.10
21807;DHT22;11065;50.786;7.840;2023-07-20T15:20:20;30.50;29.00
21807;DHT22;11065;50.786;7.840;2023-07-20T15:22:50;30.50;29.00
21807;DHT22;11065;50.786;7.840;2023-07-20T15:25:19;30.40;29.00
21807;DHT22;11065;50.786;7.840;2023-07-20T15:27:48;30.30;29.00
21807;DHT22;11065;50.786;7.840;2023-07-20T15:30:18;30.30;29.00
21807;DHT22;11065;50.786;7.840;2023-07-20T15:32:49;30.20;29.00
21807;DHT22;11065;50.786;7.840;2023-07-20T15:35:20;30.10;29.00
21807;DHT22;11065;50.786;7.840;2023-07-20T15:37:50;30.10;29.10
21807;DHT22;11065;50.786;7.840;2023-07-20T15:40:18;30.00;29.20
21807;DHT22;11065;50.786;7.840;2023-07-20T15:42:47;30.10;29.30
21807;DHT22;11065;50.786;7.840;2023-07-20T15:45:19;30.10;29.40
21807;DHT22;11065;50.786;7.840;2023-07-20T15:47:47;30.20;29.40
21807;DHT22;11065;50.786;7.840;2023-07-20T15:50:16;30.30;29.40
21807;DHT22;11065;50.786;7.840;2023-07-20T15:52:50;30.40;29.40
21807;DHT22;11065;50.786;7.840;2023-07-20T15:55:19;30.50;29.40
21807;DHT22;11065;50.786;7.840;2023-07-20T15:57:47;30.50;29.30
21807;DHT22;11065;50.786;7.840;2023-07-20T16:00:17;30.40;29.30
21807;DHT22;11065;50.786;7.840;2023-07-20T16:02:45;30.40;29.20
21807;DHT22;11065;50.786;7.840;2023-07-20T16:05:15;30.30;29.20